createdAt,value
2022-12-04T00:00:51.029Z,-1.51
2022-12-04T00:01:52.610Z,-1.48
2022-12-04T00:02:54.277Z,-1.44
2022-12-04T00:03:57.642Z,-1.48
2022-12-04T00:04:59.292Z,-1.28
2022-12-04T00:06:05.577Z,-1.22
2022-12-04T00:07:07.196Z,-1.28
2022-12-04T00:08:08.822Z,-1.27
2022-12-04T00:09:15.039Z,-1.34
2022-12-04T00:10:16.774Z,-1.37
2022-12-04T00:11:20.164Z,-1.37
2022-12-04T00:12:21.763Z,-1.41
2022-12-04T00:13:24.838Z,-1.13
2022-12-04T00:14:26.414Z,-1.05
2022-12-04T00:15:28.085Z,-1.11
2022-12-04T00:16:30.692Z,-1.30
2022-12-04T00:17:32.321Z,-1.36
2022-12-04T00:18:34.269Z,-1.35
2022-12-04T00:19:35.838Z,-1.58
2022-12-04T00:20:39.408Z,-1.42
2022-12-04T00:21:40.942Z,-1.45
2022-12-04T00:22:42.492Z,-1.46
2022-12-04T00:23:45.134Z,-1.26
2022-12-04T00:24:46.866Z,-1.47
2022-12-04T00:25:48.407Z,-1.65
2022-12-04T00:26:49.906Z,-1.54
2022-12-04T00:27:51.413Z,-1.12
2022-12-04T00:28:54.616Z,-1.24
2022-12-04T00:29:56.445Z,-1.38
2022-12-04T00:30:58.253Z,-1.39
2022-12-04T00:31:59.845Z,-1.34
2022-12-04T00:33:01.457Z,-1.45
2022-12-04T00:34:07.756Z,-1.32
2022-12-04T00:35:09.874Z,-1.35
2022-12-04T00:36:13.805Z,-1.29
2022-12-04T00:37:15.314Z,-1.50
2022-12-04T00:38:16.964Z,-1.42
2022-12-04T00:39:18.454Z,-1.62
2022-12-04T00:40:19.996Z,-1.50
2022-12-04T00:41:24.121Z,-1.45
2022-12-04T00:42:25.646Z,-1.56
2022-12-04T00:43:28.688Z,-1.87
2022-12-04T00:44:31.521Z,-1.57
2022-12-04T00:45:33.019Z,-1.42
2022-12-04T00:46:34.544Z,-1.40
2022-12-04T00:47:42.155Z,-1.27
2022-12-04T00:48:44.262Z,-1.32
2022-12-04T00:49:45.741Z,-1.38
2022-12-04T00:50:47.279Z,-1.63
2022-12-04T00:51:48.834Z,-1.59
2022-12-04T00:52:50.373Z,-1.65
2022-12-04T00:53:52.686Z,-1.52
2022-12-04T00:54:54.735Z,-1.32
2022-12-04T00:55:56.309Z,-1.28
2022-12-04T00:56:57.839Z,-1.41
2022-12-04T00:58:00.086Z,-1.42
2022-12-04T00:59:01.937Z,-1.48
2022-12-04T01:00:07.936Z,-1.21
2022-12-04T01:01:12.156Z,-1.32
2022-12-04T01:02:13.742Z,-1.11
2022-12-04T01:03:15.352Z,-0.96
2022-12-04T01:04:16.892Z,-1.08
2022-12-04T01:05:18.606Z,-1.05
2022-12-04T01:06:22.460Z,-0.95
2022-12-04T01:07:23.950Z,-0.97
2022-12-04T01:08:25.599Z,-1.06
2022-12-04T01:09:27.087Z,-1.07
2022-12-04T01:10:28.616Z,-1.01
2022-12-04T01:11:30.814Z,-1.09
2022-12-04T01:12:32.394Z,-1.24
2022-12-04T01:13:33.950Z,-1.26
2022-12-04T01:14:35.469Z,-1.10
2022-12-04T01:15:40.932Z,-0.92
2022-12-04T01:16:42.510Z,-1.03
2022-12-04T01:17:44.058Z,-1.00
2022-12-04T01:18:45.762Z,-1.06
2022-12-04T01:19:47.300Z,-1.37
2022-12-04T01:20:51.117Z,-1.17
2022-12-04T01:21:52.655Z,-1.53
2022-12-04T01:22:54.148Z,-1.51
2022-12-04T01:23:55.700Z,-1.27
2022-12-04T01:24:57.241Z,-1.58
2022-12-04T01:25:58.931Z,-1.50
2022-12-04T01:27:00.510Z,-1.34
2022-12-04T01:28:01.997Z,-1.39
2022-12-04T01:29:04.196Z,-1.30
2022-12-04T01:30:06.843Z,-1.21
2022-12-04T01:31:11.904Z,-1.29
2022-12-04T01:32:13.592Z,-1.43
2022-12-04T01:33:15.135Z,-1.30
2022-12-04T01:34:16.677Z,-1.38
2022-12-04T01:35:18.188Z,-1.32
2022-12-04T01:36:22.042Z,-1.41
2022-12-04T01:37:23.535Z,-1.27
2022-12-04T01:38:25.820Z,-1.36
2022-12-04T01:39:27.382Z,-1.28
2022-12-04T01:40:28.894Z,-1.41
2022-12-04T01:41:31.423Z,-1.32
2022-12-04T01:42:32.995Z,-1.64
2022-12-04T01:43:37.433Z,-1.38
2022-12-04T01:44:43.512Z,-1.29
2022-12-04T01:45:45.866Z,-1.37
2022-12-04T01:46:52.407Z,-1.30
2022-12-04T01:47:55.995Z,-1.29
2022-12-04T01:48:57.676Z,-1.18
2022-12-04T01:49:59.542Z,-1.64
2022-12-04T01:51:08.425Z,-1.40
2022-12-04T01:52:13.952Z,-1.81
2022-12-04T01:53:15.996Z,-1.62
2022-12-04T01:54:22.557Z,-2.05
2022-12-04T01:55:24.755Z,-1.99
2022-12-04T01:56:32.942Z,-2.10
2022-12-04T01:57:34.465Z,-1.78
2022-12-04T01:58:40.040Z,-1.67
2022-12-04T01:59:45.079Z,-1.52
2022-12-04T02:00:51.625Z,-1.45
2022-12-04T02:01:59.301Z,-1.43
2022-12-04T02:03:01.549Z,-1.32
2022-12-04T02:04:03.317Z,-1.36
2022-12-04T02:05:08.130Z,-1.41
2022-12-04T02:06:09.689Z,-1.35
2022-12-04T02:07:11.285Z,-1.18
2022-12-04T02:08:34.937Z,-1.09
2022-12-04T02:09:38.456Z,-1.10
2022-12-04T02:10:48.174Z,-1.28
2022-12-04T02:11:56.934Z,-1.32
2022-12-04T02:13:07.369Z,-1.29
2022-12-04T02:14:21.117Z,-1.18
2022-12-04T02:15:27.460Z,-1.46
2022-12-04T02:16:37.495Z,-1.26
2022-12-04T02:17:49.336Z,-1.47
2022-12-04T02:19:31.854Z,-1.57
2022-12-04T02:20:40.119Z,-1.65
2022-12-04T02:21:45.692Z,-1.54
2022-12-04T02:23:06.305Z,-1.59
2022-12-04T02:24:28.338Z,-1.81
2022-12-04T02:25:35.684Z,-1.99
2022-12-04T02:26:45.524Z,-1.79
2022-12-04T02:28:02.060Z,-1.67
2022-12-04T02:29:09.566Z,-1.59
2022-12-04T02:30:14.063Z,-1.93
2022-12-04T02:31:20.033Z,-2.06
2022-12-04T02:32:28.136Z,-1.71
2022-12-04T02:33:41.077Z,-1.77
2022-12-04T02:34:49.177Z,-1.62
2022-12-04T02:35:59.410Z,-1.68
2022-12-04T02:37:05.259Z,-1.74
2022-12-04T02:38:14.179Z,-1.66
2022-12-04T02:39:22.549Z,-1.63
2022-12-04T02:40:29.325Z,-1.64
2022-12-04T02:41:37.967Z,-1.67
2022-12-04T02:42:42.827Z,-1.60
2022-12-04T02:43:50.325Z,-1.72
2022-12-04T02:45:01.259Z,-1.64
2022-12-04T02:46:07.655Z,-1.77
2022-12-04T02:47:13.238Z,-1.50
2022-12-04T02:48:18.273Z,-1.53
2022-12-04T02:49:24.826Z,-1.81
2022-12-04T02:50:27.938Z,-1.84
2022-12-04T02:51:34.680Z,-1.93
2022-12-04T02:52:48.349Z,-2.05
2022-12-04T02:53:54.182Z,-1.79
2022-12-04T02:55:01.098Z,-1.68
2022-12-04T02:56:10.097Z,-1.72
2022-12-04T02:57:15.895Z,-1.62
2022-12-04T02:58:25.485Z,-1.65
2022-12-04T02:59:33.714Z,-1.76
2022-12-04T03:00:36.865Z,-1.60
2022-12-04T03:01:51.466Z,-1.48
2022-12-04T03:02:58.938Z,-1.41
2022-12-04T03:04:07.770Z,-1.44
2022-12-04T03:05:13.436Z,-1.30
2022-12-04T03:06:17.996Z,-1.47
2022-12-04T03:07:25.285Z,-1.25
2022-12-04T03:08:32.523Z,-1.36
2022-12-04T03:09:37.812Z,-1.73
2022-12-04T03:10:43.739Z,-2.01
2022-12-04T03:11:52.436Z,-1.75
2022-12-04T03:12:58.872Z,-1.96
2022-12-04T03:14:04.406Z,-2.01
2022-12-04T03:15:14.034Z,-1.97
2022-12-04T03:16:19.564Z,-1.88
2022-12-04T03:17:30.347Z,-1.68
2022-12-04T03:18:37.327Z,-1.47
2022-12-04T03:19:44.105Z,-1.61
2022-12-04T03:20:49.854Z,-1.51
2022-12-04T03:21:58.605Z,-1.62
2022-12-04T03:23:04.749Z,-1.70
2022-12-04T03:24:12.908Z,-1.62
2022-12-04T03:25:14.505Z,-1.44
2022-12-04T03:26:23.889Z,-1.25
2022-12-04T03:27:34.623Z,-1.31
2022-12-04T03:28:46.839Z,-1.20
2022-12-04T03:29:55.275Z,-1.02
2022-12-04T03:31:03.936Z,-1.03
2022-12-04T03:32:10.434Z,-1.66
2022-12-04T03:33:15.122Z,-1.38
2022-12-04T03:34:25.573Z,-1.25
2022-12-04T03:35:33.135Z,-1.33
2022-12-04T03:36:38.389Z,-1.33
2022-12-04T03:37:46.944Z,-1.38
2022-12-04T03:38:54.987Z,-1.49
2022-12-04T03:40:02.232Z,-1.16
2022-12-04T03:41:06.709Z,-1.14
2022-12-04T03:42:14.748Z,-0.99
2022-12-04T03:43:24.640Z,-0.97
2022-12-04T03:44:32.765Z,-0.97
2022-12-04T03:45:43.657Z,-0.92
2022-12-04T03:46:52.659Z,-0.87
2022-12-04T03:47:58.875Z,-0.98
2022-12-04T03:49:09.840Z,-1.00
2022-12-04T03:50:18.151Z,-0.97
2022-12-04T03:51:23.403Z,-1.08
2022-12-04T03:52:29.756Z,-1.05
2022-12-04T03:53:36.787Z,-1.06
2022-12-04T03:54:44.377Z,-1.17
2022-12-04T03:55:52.092Z,-1.24
2022-12-04T03:56:59.543Z,-1.22
2022-12-04T03:58:05.991Z,-1.03
2022-12-04T03:59:12.614Z,-1.14
2022-12-04T04:00:17.373Z,-1.05
2022-12-04T04:01:24.041Z,-0.97
2022-12-04T04:02:32.944Z,-1.06
2022-12-04T04:03:38.272Z,-1.04
2022-12-04T04:04:43.248Z,-0.88
2022-12-04T04:05:47.986Z,-0.93
2022-12-04T04:06:55.213Z,-0.94
2022-12-04T04:07:59.769Z,-0.84
2022-12-04T04:09:08.981Z,-0.79
2022-12-04T04:10:15.088Z,-0.74
2022-12-04T04:11:21.866Z,-0.94
2022-12-04T04:12:27.163Z,-0.95
2022-12-04T04:13:35.310Z,-0.95
2022-12-04T04:14:42.575Z,-1.00
2022-12-04T04:15:48.417Z,-0.97
2022-12-04T04:16:55.845Z,-0.91
2022-12-04T04:18:01.345Z,-1.04
2022-12-04T04:19:03.677Z,-0.87
2022-12-04T04:20:08.897Z,-0.96
2022-12-04T04:21:13.228Z,-1.44
2022-12-04T04:22:19.046Z,-1.53
2022-12-04T04:23:22.460Z,-1.22
2022-12-04T04:24:30.436Z,-1.02
2022-12-04T04:25:36.365Z,-1.10
2022-12-04T04:26:43.716Z,-1.03
2022-12-04T04:27:51.979Z,-1.06
2022-12-04T04:28:53.481Z,-1.19
2022-12-04T04:29:55.264Z,-1.06
2022-12-04T04:31:05.618Z,-1.15
2022-12-04T04:32:13.980Z,-0.99
2022-12-04T04:33:17.214Z,-1.03
2022-12-04T04:34:24.841Z,-1.05
2022-12-04T04:35:32.785Z,-1.46
2022-12-04T04:36:45.685Z,-1.23
2022-12-04T04:37:56.503Z,-1.13
2022-12-04T04:39:02.385Z,-1.08
2022-12-04T04:40:13.970Z,-1.53
2022-12-04T04:41:22.932Z,-1.30
2022-12-04T04:42:27.711Z,-1.18
2022-12-04T04:43:33.627Z,-1.06
2022-12-04T04:44:44.276Z,-0.95
2022-12-04T04:45:48.356Z,-1.09
2022-12-04T04:46:53.825Z,-1.24
2022-12-04T04:48:02.271Z,-1.14
2022-12-04T04:49:09.046Z,-1.14
2022-12-04T04:50:12.513Z,-1.10
2022-12-04T04:51:14.850Z,-1.20
2022-12-04T04:52:18.520Z,-1.13
2022-12-04T04:53:25.245Z,-0.97
2022-12-04T04:54:29.799Z,-1.18
2022-12-04T04:55:36.751Z,-1.10
2022-12-04T04:56:40.951Z,-1.11
2022-12-04T04:57:42.886Z,-1.04
2022-12-04T04:58:44.561Z,-1.16
2022-12-04T04:59:46.095Z,-1.27
2022-12-04T05:00:56.504Z,-1.25
2022-12-04T05:01:58.314Z,-1.33
2022-12-04T05:02:59.892Z,-1.48
2022-12-04T05:04:02.618Z,-1.34
2022-12-04T05:05:06.277Z,-1.31
2022-12-04T05:06:08.240Z,-1.18
2022-12-04T05:07:09.807Z,-1.23
2022-12-04T05:08:11.355Z,-1.19
2022-12-04T05:09:12.889Z,-1.15
2022-12-04T05:10:14.386Z,-0.99
2022-12-04T05:11:16.925Z,-0.98
2022-12-04T05:12:18.512Z,-1.21
2022-12-04T05:13:20.716Z,-0.88
2022-12-04T05:14:22.264Z,-0.89
2022-12-04T05:15:23.939Z,-0.92
2022-12-04T05:16:25.537Z,-0.80
2022-12-04T05:17:27.120Z,-1.07
2022-12-04T05:18:29.060Z,-0.97
2022-12-04T05:19:32.482Z,-0.81
2022-12-04T05:20:38.124Z,-0.85
2022-12-04T05:21:39.641Z,-0.92
2022-12-04T05:22:41.163Z,-1.20
2022-12-04T05:23:42.733Z,-1.21
2022-12-04T05:24:44.292Z,-1.48
2022-12-04T05:25:45.970Z,-1.56
2022-12-04T05:26:47.448Z,-1.21
2022-12-04T05:27:49.182Z,-1.06
2022-12-04T05:28:50.766Z,-0.98
2022-12-04T05:29:53.095Z,-1.12
2022-12-04T05:30:55.586Z,-1.24
2022-12-04T05:31:57.156Z,-1.13
2022-12-04T05:32:58.699Z,-0.82
2022-12-04T05:34:00.208Z,-1.09
2022-12-04T05:35:04.038Z,-0.96
2022-12-04T05:36:11.632Z,-1.01
2022-12-04T05:37:13.168Z,-1.31
2022-12-04T05:38:14.692Z,-1.04
2022-12-04T05:39:16.219Z,-1.02
2022-12-04T05:40:18.103Z,-1.36
2022-12-04T05:41:19.619Z,-1.12
2022-12-04T05:42:21.557Z,-1.00
2022-12-04T05:43:23.085Z,-0.92
2022-12-04T05:44:24.886Z,-0.97
2022-12-04T05:45:26.424Z,-0.91
2022-12-04T05:46:28.017Z,-1.01
2022-12-04T05:47:29.545Z,-1.10
2022-12-04T05:48:31.524Z,-0.99
2022-12-04T05:49:34.138Z,-1.22
2022-12-04T05:50:35.818Z,-1.21
2022-12-04T05:51:38.638Z,-1.10
2022-12-04T05:52:40.179Z,-1.03
2022-12-04T05:53:41.724Z,-1.16
2022-12-04T05:54:43.634Z,-1.20
2022-12-04T05:55:45.174Z,-1.37
2022-12-04T05:56:46.709Z,-1.15
2022-12-04T05:57:48.246Z,-0.91
2022-12-04T05:58:49.727Z,-0.78
2022-12-04T05:59:51.362Z,-1.00
2022-12-04T06:00:53.114Z,-0.87
2022-12-04T06:01:54.762Z,-1.24
2022-12-04T06:02:56.379Z,-1.37
2022-12-04T06:03:57.946Z,-1.52
2022-12-04T06:04:59.430Z,-1.35
2022-12-04T06:06:00.978Z,-1.36
2022-12-04T06:07:07.176Z,-1.40
2022-12-04T06:08:08.932Z,-1.35
2022-12-04T06:09:11.840Z,-1.42
2022-12-04T06:10:13.376Z,-1.53
2022-12-04T06:11:17.092Z,-1.53
2022-12-04T06:12:18.588Z,-1.66
2022-12-04T06:13:20.088Z,-1.76
2022-12-04T06:14:21.606Z,-1.80
2022-12-04T06:15:23.347Z,-1.54
2022-12-04T06:16:27.189Z,-1.70
2022-12-04T06:17:28.787Z,-1.54
2022-12-04T06:18:30.321Z,-1.42
2022-12-04T06:19:31.900Z,-1.41
2022-12-04T06:20:34.118Z,-1.49
2022-12-04T06:21:37.611Z,-1.42
2022-12-04T06:22:40.557Z,-1.32
2022-12-04T06:23:42.090Z,-1.29
2022-12-04T06:24:43.636Z,-1.47
2022-12-04T06:25:45.136Z,-1.49
2022-12-04T06:27:11.163Z,-1.66
2022-12-04T06:28:08.327Z,-1.78
2022-12-04T06:29:11.089Z,-1.80
2022-12-04T06:30:13.050Z,-1.43
2022-12-04T06:31:16.550Z,-1.43
2022-12-04T06:32:21.665Z,-1.30
2022-12-04T06:33:23.387Z,-1.13
2022-12-04T06:34:24.977Z,-1.43
2022-12-04T06:35:26.496Z,-1.21
2022-12-04T06:36:28.009Z,-1.21
2022-12-04T06:37:29.718Z,-1.04
2022-12-04T06:38:33.323Z,-0.87
2022-12-04T06:39:34.821Z,-0.78
2022-12-04T06:40:39.701Z,-0.71
2022-12-04T06:41:41.241Z,-0.79
2022-12-04T06:42:42.757Z,-0.54
2022-12-04T06:43:44.811Z,-0.87
2022-12-04T06:44:46.294Z,-0.87
2022-12-04T06:45:48.158Z,-0.73
2022-12-04T06:46:50.174Z,-1.05
2022-12-04T06:47:51.814Z,-0.98
2022-12-04T06:48:55.509Z,-0.76
2022-12-04T06:49:57.253Z,-0.81
2022-12-04T06:51:00.245Z,-0.89
2022-12-04T06:52:01.804Z,-0.79
2022-12-04T06:53:08.147Z,-0.90
2022-12-04T06:54:11.905Z,-0.87
2022-12-04T06:55:13.407Z,-0.87
2022-12-04T06:56:16.887Z,-0.99
2022-12-04T06:57:27.886Z,-1.27
2022-12-04T06:58:29.782Z,-1.05
2022-12-04T06:59:31.273Z,-1.00
2022-12-04T07:00:32.776Z,-0.97
2022-12-04T07:01:34.842Z,-0.83
2022-12-04T07:02:36.468Z,-0.86
2022-12-04T07:03:38.669Z,-0.67
2022-12-04T07:04:40.189Z,-0.57
2022-12-04T07:05:41.700Z,-0.48
2022-12-04T07:06:43.186Z,-0.70
2022-12-04T07:07:44.719Z,-1.01
2022-12-04T07:08:48.491Z,-0.82
2022-12-04T07:09:51.364Z,-0.56
2022-12-04T07:10:58.847Z,-0.57
2022-12-04T07:12:00.755Z,-0.43
2022-12-04T07:13:02.475Z,-0.42
2022-12-04T07:14:04.381Z,-1.08
2022-12-04T07:15:06.842Z,-0.97
2022-12-04T07:16:11.268Z,-1.07
2022-12-04T07:17:12.961Z,-1.12
2022-12-04T07:18:14.503Z,-1.11
2022-12-04T07:19:16.028Z,-1.27
2022-12-04T07:20:17.767Z,-1.10
2022-12-04T07:21:21.327Z,-1.15
2022-12-04T07:22:22.795Z,-1.21
2022-12-04T07:23:24.357Z,-1.13
2022-12-04T07:24:25.886Z,-1.24
2022-12-04T07:25:28.780Z,-1.31
2022-12-04T07:26:30.845Z,-1.17
2022-12-04T07:27:32.323Z,-0.97
2022-12-04T07:28:34.172Z,-0.77
2022-12-04T07:29:35.727Z,-0.72
2022-12-04T07:30:37.309Z,-0.74
2022-12-04T07:31:38.986Z,-0.60
2022-12-04T07:32:40.955Z,-0.42
2022-12-04T07:33:43.121Z,-0.41
2022-12-04T07:34:44.642Z,-0.64
2022-12-04T07:35:54.858Z,-0.98
2022-12-04T07:36:56.340Z,-1.03
2022-12-04T07:37:58.661Z,-0.89
2022-12-04T07:39:00.175Z,-0.58
2022-12-04T07:40:01.781Z,-0.43
2022-12-04T07:41:06.184Z,-0.52
2022-12-04T07:42:07.757Z,-0.43
2022-12-04T07:43:09.302Z,-0.69
2022-12-04T07:44:10.846Z,-0.88
2022-12-04T07:45:12.378Z,-0.56
2022-12-04T07:46:16.586Z,-0.47
2022-12-04T07:47:18.120Z,-0.40
2022-12-04T07:48:19.767Z,-0.42
2022-12-04T07:49:21.268Z,-0.40
2022-12-04T07:50:22.779Z,-0.36
2022-12-04T07:51:26.045Z,-0.19
2022-12-04T07:52:27.610Z,-0.28
2022-12-04T07:53:29.138Z,-0.22
2022-12-04T07:54:30.744Z,-0.62
2022-12-04T07:55:32.307Z,-0.24
2022-12-04T07:56:35.168Z,-0.10
2022-12-04T07:57:36.720Z,-0.18
2022-12-04T07:58:38.602Z,-0.02
2022-12-04T07:59:40.075Z,-0.01
2022-12-04T08:00:41.597Z,-0.21
2022-12-04T08:01:43.212Z,-0.02
2022-12-04T08:02:44.762Z,0.07
2022-12-04T08:03:49.010Z,-0.38
2022-12-04T08:04:50.969Z,-0.15
2022-12-04T08:05:52.581Z,-0.39
2022-12-04T08:06:54.063Z,-0.26
2022-12-04T08:07:55.695Z,-0.19
2022-12-04T08:08:57.309Z,-0.34
2022-12-04T08:09:58.888Z,-0.16
2022-12-04T08:11:01.203Z,-0.08
2022-12-04T08:12:04.288Z,-0.05
2022-12-04T08:13:05.783Z,-0.05
2022-12-04T08:14:07.375Z,-0.38
2022-12-04T08:15:10.094Z,-0.24
2022-12-04T08:16:12.955Z,-0.13
2022-12-04T08:17:14.484Z,-0.16
2022-12-04T08:18:16.154Z,-0.17
2022-12-04T08:19:17.638Z,-0.13
2022-12-04T08:20:19.148Z,-0.07
2022-12-04T08:21:23.221Z,-0.17
2022-12-04T08:22:25.572Z,-0.10
2022-12-04T08:23:27.135Z,-0.09
2022-12-04T08:24:28.648Z,-0.11
2022-12-04T08:25:30.222Z,0.07
2022-12-04T08:26:32.779Z,0.10
2022-12-04T08:27:35.956Z,-0.05
2022-12-04T08:28:37.841Z,-0.16
2022-12-04T08:29:39.383Z,-0.22
2022-12-04T08:30:40.983Z,-0.12
2022-12-04T08:31:42.538Z,0.10
2022-12-04T08:32:44.220Z,0.02
2022-12-04T08:33:47.130Z,0.12
2022-12-04T08:34:55.549Z,0.10
2022-12-04T08:35:57.563Z,0.17
2022-12-04T08:36:59.090Z,0.16
2022-12-04T08:38:00.617Z,0.24
2022-12-04T08:39:02.273Z,0.05
2022-12-04T08:40:04.648Z,-0.60
2022-12-04T08:41:10.698Z,-0.20
2022-12-04T08:42:12.215Z,-0.12
2022-12-04T08:43:15.192Z,0.11
2022-12-04T08:44:16.728Z,0.08
2022-12-04T08:45:18.257Z,0.06
2022-12-04T08:46:20.206Z,0.10
2022-12-04T08:47:21.785Z,0.36
2022-12-04T08:48:23.384Z,0.36
2022-12-04T08:49:24.913Z,0.04
2022-12-04T08:50:26.423Z,-0.08
2022-12-04T08:51:29.964Z,0.13
2022-12-04T08:52:31.490Z,0.17
2022-12-04T08:53:32.971Z,-0.01
2022-12-04T08:54:36.277Z,-0.21
2022-12-04T08:55:37.987Z,-0.36
2022-12-04T08:56:39.562Z,-0.30
2022-12-04T08:57:41.091Z,-0.28
2022-12-04T08:58:43.942Z,-0.43
2022-12-04T08:59:45.515Z,-0.69
2022-12-04T09:00:47.030Z,-0.84
2022-12-04T09:01:50.223Z,-0.89
2022-12-04T09:02:51.776Z,-0.91
2022-12-04T09:03:53.908Z,-0.92
2022-12-04T09:04:55.522Z,-1.10
2022-12-04T09:05:59.326Z,-0.99
2022-12-04T09:07:00.880Z,-1.00
2022-12-04T09:08:02.433Z,-1.19
2022-12-04T09:09:04.281Z,-1.15
2022-12-04T09:10:06.949Z,-1.16
2022-12-04T09:11:10.636Z,-1.32
2022-12-04T09:12:12.197Z,-1.28
2022-12-04T09:13:13.712Z,-1.31
2022-12-04T09:14:16.567Z,-1.27
2022-12-04T09:15:18.402Z,-1.28
2022-12-04T09:16:22.197Z,-1.28
2022-12-04T09:17:23.753Z,-1.35
2022-12-04T09:18:25.534Z,-1.28
2022-12-04T09:19:27.262Z,-1.38
2022-12-04T09:20:28.810Z,-1.34
2022-12-04T09:21:30.620Z,-1.46
2022-12-04T09:22:57.762Z,-1.43
2022-12-04T09:23:55.112Z,-1.54
2022-12-04T09:24:56.637Z,-1.43
2022-12-04T09:25:58.149Z,-1.33
2022-12-04T09:26:59.693Z,-1.31
2022-12-04T09:28:01.246Z,-1.47
2022-12-04T09:29:05.632Z,-1.37
2022-12-04T09:30:11.442Z,-1.27
2022-12-04T09:31:13.226Z,-1.27
2022-12-04T09:32:14.821Z,-1.16
2022-12-04T09:33:16.296Z,-0.83
2022-12-04T09:34:17.870Z,-0.62
2022-12-04T09:35:19.549Z,-0.67
2022-12-04T09:36:21.496Z,-1.00
2022-12-04T09:37:23.071Z,-1.07
2022-12-04T09:38:24.578Z,-0.58
2022-12-04T09:39:26.100Z,-0.33
2022-12-04T09:40:35.503Z,-0.38
2022-12-04T09:42:22.843Z,0.01
2022-12-04T09:43:31.030Z,-0.15
2022-12-04T09:44:35.327Z,-0.07
2022-12-04T09:45:46.386Z,-0.17
2022-12-04T09:46:51.894Z,-0.25
2022-12-04T09:47:57.479Z,-0.14
2022-12-04T09:49:03.043Z,0.04
2022-12-04T09:50:13.932Z,-0.07
2022-12-04T09:51:19.222Z,-0.10
2022-12-04T09:52:30.947Z,-0.13
2022-12-04T09:53:42.432Z,-0.09
2022-12-04T09:54:44.409Z,0.08
2022-12-04T09:55:54.551Z,0.04
2022-12-04T09:57:02.705Z,0.05
2022-12-04T09:58:06.482Z,-0.13
2022-12-04T09:59:14.458Z,-0.43
2022-12-04T10:00:18.218Z,-0.60
2022-12-04T10:01:24.217Z,-0.70
2022-12-04T10:02:35.575Z,-0.10
2022-12-04T10:03:37.386Z,0.08
2022-12-04T10:04:39.045Z,-0.09
2022-12-04T10:05:54.097Z,-0.04
2022-12-04T10:07:04.883Z,0.18
2022-12-04T10:08:15.410Z,0.08
2022-12-04T10:09:21.822Z,0.02
2022-12-04T10:10:33.775Z,-0.27
2022-12-04T10:11:52.058Z,-0.34
2022-12-04T10:12:57.648Z,-0.61
2022-12-04T10:14:10.930Z,-0.81
2022-12-04T10:15:26.281Z,-0.63
2022-12-04T10:16:44.941Z,-0.78
2022-12-04T10:18:18.496Z,-0.85
2022-12-04T10:19:28.998Z,-0.73
2022-12-04T10:20:52.140Z,-0.76
2022-12-04T10:22:03.662Z,-0.74
2022-12-04T10:23:24.935Z,-0.48
2022-12-04T10:24:38.087Z,-0.76
2022-12-04T10:25:40.448Z,-0.71
2022-12-04T10:26:45.880Z,-0.61
2022-12-04T10:27:51.600Z,-0.74
2022-12-04T10:28:57.087Z,-0.54
2022-12-04T10:30:02.783Z,-0.48
2022-12-04T10:31:06.220Z,-0.27
2022-12-04T10:32:18.741Z,-0.12
2022-12-04T10:33:23.472Z,-0.36
2022-12-04T10:34:27.306Z,-0.17
2022-12-04T10:35:31.150Z,-0.20
2022-12-04T10:36:34.872Z,0.05
2022-12-04T10:37:40.894Z,-0.09
2022-12-04T10:38:47.281Z,-0.56
2022-12-04T10:39:54.928Z,-0.22
2022-12-04T10:41:02.699Z,-0.40
2022-12-04T10:42:11.631Z,-0.64
2022-12-04T10:43:18.244Z,-0.35
2022-12-04T10:44:20.595Z,-0.16
2022-12-04T10:45:23.510Z,-0.06
2022-12-04T10:46:27.877Z,-0.01
2022-12-04T10:47:30.832Z,-0.21
2022-12-04T10:48:36.200Z,-0.55
2022-12-04T10:49:38.294Z,-0.40
2022-12-04T10:50:39.792Z,0.01
2022-12-04T10:51:43.073Z,0.01
2022-12-04T10:52:45.462Z,-0.25
2022-12-04T10:53:47.756Z,-0.42
2022-12-04T10:54:52.068Z,-0.17
2022-12-04T10:55:53.585Z,-0.30
2022-12-04T10:56:57.261Z,-0.14
2022-12-04T10:57:58.921Z,-0.35
2022-12-04T10:59:02.665Z,-0.35
2022-12-04T11:00:22.825Z,-0.05
2022-12-04T11:01:24.652Z,-0.03
2022-12-04T11:02:28.784Z,-0.30
2022-12-04T11:03:32.300Z,-0.43
2022-12-04T11:04:35.108Z,-0.24
2022-12-04T11:05:44.043Z,-0.09
2022-12-04T11:06:45.631Z,-0.07
2022-12-04T11:07:49.228Z,-0.32
2022-12-04T11:08:51.551Z,-0.38
2022-12-04T11:09:58.891Z,-0.24
2022-12-04T11:11:02.297Z,-0.35
2022-12-04T11:12:09.350Z,-0.41
2022-12-04T11:13:16.227Z,-0.40
2022-12-04T11:14:20.687Z,-0.10
2022-12-04T11:15:22.898Z,-0.34
2022-12-04T11:16:33.515Z,-0.08
2022-12-04T11:17:35.068Z,-0.17
2022-12-04T11:18:48.308Z,-0.25
2022-12-04T11:19:59.575Z,-0.10
2022-12-04T11:21:04.371Z,0.19
2022-12-04T11:22:13.411Z,0.04
2022-12-04T11:23:16.413Z,0.16
2022-12-04T11:24:21.810Z,-0.01
2022-12-04T11:25:26.860Z,0.01
2022-12-04T11:26:34.942Z,-0.04
2022-12-04T11:27:37.387Z,0.09
2022-12-04T11:28:43.618Z,0.07
2022-12-04T11:29:46.367Z,-0.10
2022-12-04T11:30:52.321Z,0.04
2022-12-04T11:31:55.589Z,0.12
2022-12-04T11:32:58.145Z,0.30
2022-12-04T11:34:05.288Z,0.44
2022-12-04T11:35:14.613Z,0.42
2022-12-04T11:36:21.497Z,0.19
2022-12-04T11:37:27.724Z,0.12
2022-12-04T11:38:35.948Z,-0.03
2022-12-04T11:39:41.098Z,-0.19
2022-12-04T11:40:46.807Z,-0.02
2022-12-04T11:41:59.959Z,-0.03
2022-12-04T11:43:04.991Z,-0.24
2022-12-04T11:44:07.429Z,-0.33
2022-12-04T11:45:20.695Z,-0.32
2022-12-04T11:46:25.127Z,-0.03
2022-12-04T11:47:29.419Z,0.06
2022-12-04T11:48:40.591Z,-0.43
2022-12-04T11:49:44.002Z,-0.51
2022-12-04T11:50:52.925Z,-0.44
2022-12-04T11:52:10.892Z,-0.48
2022-12-04T11:53:17.484Z,-0.35
2022-12-04T11:54:29.862Z,-0.32
2022-12-04T11:55:41.884Z,-0.45
2022-12-04T11:56:56.603Z,-0.23
2022-12-04T11:58:15.586Z,-0.31
2022-12-04T11:59:34.668Z,-0.27
2022-12-04T12:00:46.080Z,-0.52
2022-12-04T12:01:54.690Z,-0.33
2022-12-04T12:03:12.832Z,-0.14
2022-12-04T12:04:37.200Z,-0.17
2022-12-04T12:06:00.622Z,-0.22
2022-12-04T12:07:19.050Z,-0.09
2022-12-04T12:08:31.546Z,-0.19
2022-12-04T12:11:14.349Z,-0.06
2022-12-04T12:12:23.982Z,-0.21
2022-12-04T12:13:35.000Z,-0.36
2022-12-04T12:14:46.897Z,-0.43
2022-12-04T12:15:58.108Z,-0.50
2022-12-04T12:17:10.079Z,-0.55
2022-12-04T12:18:30.507Z,-0.45
2022-12-04T12:19:44.616Z,-0.37
2022-12-04T12:20:56.447Z,-0.29
2022-12-04T12:22:08.494Z,-0.07
2022-12-04T12:23:27.775Z,-0.26
2022-12-04T12:24:30.961Z,-0.32
2022-12-04T12:25:39.688Z,-0.19
2022-12-04T12:26:49.710Z,0.20
2022-12-04T12:28:01.616Z,0.49
2022-12-04T12:29:17.567Z,0.50
2022-12-04T12:30:21.333Z,0.62
2022-12-04T12:31:53.254Z,0.67
2022-12-04T12:33:02.438Z,0.57
2022-12-04T12:34:08.395Z,0.69
2022-12-04T12:35:21.382Z,0.72
2022-12-04T12:36:29.274Z,0.55
2022-12-04T12:37:41.277Z,0.73
2022-12-04T12:38:47.543Z,0.44
2022-12-04T12:39:54.487Z,0.32
2022-12-04T12:41:01.471Z,0.23
2022-12-04T12:42:03.055Z,0.21
2022-12-04T12:43:10.871Z,0.07
2022-12-04T12:44:17.770Z,-0.11
2022-12-04T12:45:28.166Z,-0.13
2022-12-04T12:46:34.668Z,-0.21
2022-12-04T12:47:41.773Z,-0.24
2022-12-04T12:48:52.491Z,-0.21
2022-12-04T12:50:00.572Z,0.03
2022-12-04T12:51:29.285Z,-0.16
2022-12-04T12:52:38.007Z,-0.14
2022-12-04T12:53:44.370Z,-0.07
2022-12-04T12:54:49.033Z,-0.12
2022-12-04T12:56:04.918Z,0.04
2022-12-04T12:57:13.887Z,-0.02
2022-12-04T12:58:22.130Z,-0.21
2022-12-04T12:59:26.572Z,-0.20
2022-12-04T13:00:31.981Z,-0.24
2022-12-04T13:01:44.776Z,-0.12
2022-12-04T13:02:52.259Z,-0.24
2022-12-04T13:03:58.556Z,0.05
2022-12-04T13:05:04.626Z,-0.21
2022-12-04T13:06:12.105Z,-0.26
2022-12-04T13:07:27.627Z,-0.34
2022-12-04T13:08:37.606Z,-0.49
2022-12-04T13:09:42.180Z,-0.40
2022-12-04T13:10:48.579Z,-0.45
2022-12-04T13:11:52.248Z,-0.45
2022-12-04T13:12:57.911Z,-0.57
2022-12-04T13:14:01.376Z,-0.49
2022-12-04T13:15:02.999Z,-0.28
2022-12-04T13:16:09.475Z,-0.17
2022-12-04T13:17:16.351Z,0.06
2022-12-04T13:18:23.966Z,0.44
2022-12-04T13:19:29.767Z,0.36
2022-12-04T13:20:38.565Z,0.61
2022-12-04T13:21:44.918Z,0.77
2022-12-04T13:23:10.891Z,0.33
2022-12-04T13:24:42.168Z,0.16
2022-12-04T13:25:55.073Z,0.37
2022-12-04T13:27:03.589Z,0.47
2022-12-04T13:28:17.034Z,0.28
2022-12-04T13:29:32.697Z,0.13
2022-12-04T13:30:44.951Z,0.17
2022-12-04T13:31:57.398Z,0.54
2022-12-04T13:33:35.522Z,0.40
2022-12-04T13:34:51.516Z,0.16
2022-12-04T13:36:15.436Z,0.41
2022-12-04T13:37:30.872Z,0.29
2022-12-04T13:38:42.540Z,-0.03
2022-12-04T13:40:25.954Z,-0.28
2022-12-04T13:41:31.493Z,-0.45
2022-12-04T13:42:33.342Z,-0.53
2022-12-04T13:43:36.579Z,-0.61
2022-12-04T13:44:40.196Z,-0.56
2022-12-04T13:45:44.960Z,-0.50
2022-12-04T13:46:53.903Z,-0.36
2022-12-04T13:47:59.787Z,-0.04
2022-12-04T13:49:09.182Z,0.17
2022-12-04T13:50:30.056Z,0.02
2022-12-04T13:51:36.465Z,-0.02
2022-12-04T13:52:39.983Z,0.28
2022-12-04T13:53:43.307Z,0.40
2022-12-04T13:54:56.770Z,0.26
2022-12-04T13:56:04.432Z,0.32
2022-12-04T13:57:20.634Z,0.41
2022-12-04T13:58:27.180Z,0.54
2022-12-04T13:59:37.890Z,0.48
2022-12-04T14:00:41.471Z,0.68
2022-12-04T14:01:46.595Z,0.78
2022-12-04T14:02:51.616Z,0.93
2022-12-04T14:03:54.898Z,1.00
2022-12-04T14:04:59.305Z,0.93
2022-12-04T14:06:03.285Z,0.99
2022-12-04T14:07:05.117Z,1.06
2022-12-04T14:08:21.056Z,1.15